Time;durP1;ratioP1;P1;durP2;ratioP2;P2;SDS_P1;SDS_P2;PMS_P1;PMS_P2;Temp;Humidity;BMP_temperature;BMP_pressure;BME280_temperature;BME280_humidity;BME280_pressure;Samples;Min_cycle;Max_cycle;Signal;HPM_P1;HPM_P2
2022/05/20 00:00:17;;;;;;;6.05;4.10;;;;;;;14.97;100.00;99691.50;5152421;27;20596;-55
2022/05/20 00:02:43;;;;;;;13.00;4.25;;;;;;;14.97;100.00;99735.69;5152285;27;20107;-54
2022/05/20 00:05:10;;;;;;;9.38;4.35;;;;;;;14.91;100.00;99791.63;5152650;27;20073;-52
2022/05/20 00:07:36;;;;;;;8.23;5.32;;;;;;;14.82;100.00;99819.50;5152035;27;20055;-54
2022/05/20 00:10:03;;;;;;;7.03;4.60;;;;;;;14.69;100.00;99827.25;5152412;27;20493;-55
2022/05/20 00:12:30;;;;;;;20.98;4.07;;;;;;;14.59;100.00;99798.38;5152057;27;20064;-52
2022/05/20 00:14:56;;;;;;;6.22;4.25;;;;;;;14.22;100.00;99767.13;5152169;27;20055;-55
2022/05/20 00:17:22;;;;;;;7.55;4.50;;;;;;;14.10;100.00;99722.09;5152118;27;20059;-55
2022/05/20 00:19:48;;;;;;;6.60;4.20;;;;;;;14.22;100.00;99720.25;5151958;27;20051;-53
2022/05/20 00:22:14;;;;;;;11.05;5.10;;;;;;;14.18;100.00;99717.47;5151845;27;20058;-55
2022/05/20 00:27:21;;;;;;;7.45;4.45;;;;;;;14.04;100.00;99678.69;5150636;27;20046;-54
2022/05/20 00:29:48;;;;;;;8.23;4.85;;;;;;;13.97;100.00;99651.84;5151773;27;20106;-54
2022/05/20 00:32:14;;;;;;;9.07;5.57;;;;;;;13.90;100.00;99629.69;5151703;27;20061;-55
2022/05/20 00:34:40;;;;;;;7.35;5.03;;;;;;;13.91;100.00;99613.97;5151727;27;20073;-54
2022/05/20 00:37:07;;;;;;;8.80;4.93;;;;;;;13.92;100.00;99596.25;5150825;27;20088;-53
2022/05/20 00:39:33;;;;;;;10.45;6.10;;;;;;;13.79;100.00;99590.19;5151553;27;20058;-55
2022/05/20 00:41:59;;;;;;;6.13;4.68;;;;;;;13.78;100.00;99572.06;5151660;27;20092;-55
2022/05/20 00:44:26;;;;;;;7.10;4.65;;;;;;;13.67;100.00;99566.44;5151613;27;20047;-55
2022/05/20 00:46:53;;;;;;;9.18;5.15;;;;;;;13.54;100.00;99534.81;5151331;27;20069;-55
2022/05/20 00:49:19;;;;;;;7.20;5.00;;;;;;;13.53;100.00;99509.22;5151612;27;20414;-55
2022/05/20 00:51:50;;;;;;;6.90;5.07;;;;;;;13.51;100.00;99502.50;5151323;27;20062;-55
2022/05/20 00:54:19;;;;;;;8.63;6.03;;;;;;;13.57;100.00;99492.75;5151568;27;20055;-55
2022/05/20 00:56:50;;;;;;;6.53;4.78;;;;;;;13.65;100.00;99492.41;5151616;27;20054;-55
2022/05/20 00:59:19;;;;;;;9.32;5.60;;;;;;;13.61;100.00;99477.03;5151608;27;20050;-55
2022/05/20 01:01:48;;;;;;;10.40;5.43;;;;;;;13.54;100.00;99463.19;5151254;27;20456;-55
2022/05/20 01:04:17;;;;;;;8.38;5.35;;;;;;;13.69;100.00;99472.38;5151034;27;20055;-54
2022/05/20 01:06:43;;;;;;;10.68;5.55;;;;;;;13.76;100.00;99475.19;5151325;27;20058;-50
2022/05/20 01:09:09;;;;;;;12.50;5.53;;;;;;;13.76;100.00;99467.75;5151314;27;20066;-54
2022/05/20 01:11:38;;;;;;;12.52;5.70;;;;;;;13.60;100.00;99467.19;5151169;27;20434;-55
2022/05/20 01:14:05;;;;;;;10.10;5.20;;;;;;;13.58;100.00;99441.97;5151034;27;20059;-55
2022/05/20 01:16:33;;;;;;;10.10;5.30;;;;;;;13.69;100.00;99448.38;5151181;27;20058;-55
2022/05/20 01:19:01;;;;;;;8.75;5.97;;;;;;;13.47;100.00;99463.91;5151123;27;20054;-55
2022/05/20 01:21:28;;;;;;;14.93;6.65;;;;;;;13.43;100.00;99430.03;5151422;27;20493;-54
2022/05/20 01:23:59;;;;;;;7.57;6.30;;;;;;;13.56;100.00;99419.50;5151396;27;20050;-55
2022/05/20 01:26:26;;;;;;;9.88;5.93;;;;;;;13.62;100.00;99429.81;5150898;27;20075;-55
2022/05/20 01:28:52;;;;;;;9.38;6.18;;;;;;;13.35;100.00;99431.91;5150830;27;20394;-54
2022/05/20 01:31:18;;;;;;;14.80;7.28;;;;;;;13.46;100.00;99393.44;5151152;27;20054;-55
2022/05/20 01:33:47;;;;;;;13.90;6.40;;;;;;;13.58;100.00;99395.94;5150778;27;20051;-54
2022/05/20 01:36:17;;;;;;;8.82;5.05;;;;;;;13.54;100.00;99408.88;5151102;27;20054;-55
2022/05/20 01:38:43;;;;;;;16.95;6.05;;;;;;;13.63;100.00;99420.41;5150857;27;20059;-55
2022/05/20 01:41:13;;;;;;;10.43;6.30;;;;;;;13.51;100.00;99419.88;5150813;27;20051;-54
2022/05/20 01:43:53;;;;;;;11.65;7.55;;;;;;;13.52;100.00;99405.72;5150987;27;20054;-55
2022/05/20 01:46:27;;;;;;;14.25;6.15;;;;;;;13.54;100.00;99402.59;5150972;27;20103;-54
2022/05/20 01:49:08;;;;;;;13.63;7.13;;;;;;;13.49;100.00;99416.69;5152393;27;20054;-54
2022/05/20 01:51:48;;;;;;;10.57;7.28;;;;;;;13.51;100.00;99412.41;5154612;27;20061;-51
2022/05/20 01:54:22;;;;;;;9.80;6.95;;;;;;;13.48;100.00;99407.66;5154033;27;20531;-55
2022/05/20 01:56:55;;;;;;;11.10;6.65;;;;;;;13.51;100.00;99404.13;5154629;27;20050;-51
2022/05/20 01:59:25;;;;;;;14.02;7.70;;;;;;;13.54;100.00;99406.13;5154287;27;20062;-54
2022/05/20 02:01:56;;;;;;;12.07;7.20;;;;;;;13.60;100.00;99410.13;5154398;27;20128;-55
2022/05/20 02:04:29;;;;;;;8.82;6.78;;;;;;;13.50;100.00;99407.28;5154102;27;20061;-55
2022/05/20 02:07:02;;;;;;;11.95;7.20;;;;;;;13.52;100.00;99405.72;5154250;27;20055;-55
2022/05/20 02:09:35;;;;;;;12.13;7.55;;;;;;;13.36;100.00;99402.41;5154029;27;20050;-51
2022/05/20 02:12:02;;;;;;;11.02;6.43;;;;;;;13.56;100.00;99401.06;5154057;27;20054;-53
2022/05/20 02:14:35;;;;;;;10.98;6.15;;;;;;;13.51;100.00;99419.88;5153928;27;20051;-52
2022/05/20 02:17:07;;;;;;;12.93;8.27;;;;;;;13.47;100.00;99430.84;5153631;27;20050;-54
2022/05/20 02:19:38;;;;;;;11.20;6.70;;;;;;;13.44;100.00;99426.09;5154091;27;20054;-55
2022/05/20 02:22:10;;;;;;;9.90;6.30;;;;;;;13.20;100.00;99410.88;5153867;27;20062;-55
2022/05/20 02:24:39;;;;;;;10.80;7.05;;;;;;;13.25;100.00;99382.22;5153896;27;20413;-57
2022/05/20 02:27:08;;;;;;;13.05;7.20;;;;;;;13.29;100.00;99383.06;5153661;27;20433;-51
2022/05/20 02:29:40;;;;;;;14.55;7.15;;;;;;;13.44;100.00;99387.53;5153917;27;20065;-55
2022/05/20 02:32:11;;;;;;;10.95;6.85;;;;;;;13.45;100.00;99402.88;5153706;27;20050;-56
2022/05/20 02:34:38;;;;;;;11.30;6.88;;;;;;;13.44;100.00;99417.84;5153950;27;20050;-54
2022/05/20 02:37:18;;;;;;;11.00;7.70;;;;;;;13.51;100.00;99422.63;5153827;27;20061;-53
2022/05/20 02:39:44;;;;;;;8.75;6.70;;;;;;;13.52;100.00;99438.75;5153336;27;20051;-53
2022/05/20 02:42:11;;;;;;;8.27;6.25;;;;;;;13.58;100.00;99439.22;5153650;27;20058;-51
2022/05/20 02:44:37;;;;;;;11.75;6.10;;;;;;;13.61;100.00;99449.47;5153522;27;20051;-54
2022/05/20 02:47:04;;;;;;;12.45;6.72;;;;;;;13.61;100.00;99452.25;5153543;27;20100;-52
2022/05/20 02:49:30;;;;;;;7.60;6.20;;;;;;;13.62;100.00;99460.13;5153351;27;20054;-53
2022/05/20 02:51:56;;;;;;;13.05;7.05;;;;;;;13.64;100.00;99459.75;5153507;27;20059;-56
2022/05/20 02:54:22;;;;;;;9.32;6.35;;;;;;;13.71;100.00;99448.81;5153229;27;20107;-55
2022/05/20 02:56:49;;;;;;;10.18;6.35;;;;;;;13.74;100.00;99464.56;5153135;27;20058;-54
2022/05/20 03:04:41;;;;;;;9.70;6.88;;;;;;;13.72;100.00;99472.41;5118509;27;20050;-54
2022/05/20 03:07:07;;;;;;;15.60;8.40;;;;;;;13.64;100.00;99460.53;5152853;27;20062;-53
2022/05/20 03:09:33;;;;;;;7.38;6.32;;;;;;;13.73;100.00;99456.66;5152942;27;20062;-52
2022/05/20 03:12:00;;;;;;;13.65;9.52;;;;;;;13.72;100.00;99446.84;5152985;27;20054;-55
2022/05/20 03:14:27;;;;;;;12.93;7.68;;;;;;;13.73;100.00;99443.72;5153038;27;20050;-54
2022/05/20 03:16:53;;;;;;;10.60;6.95;;;;;;;13.44;100.00;99422.56;5153034;27;20047;-52
2022/05/20 03:19:20;;;;;;;12.52;7.45;;;;;;;13.64;100.00;99418.44;5153119;27;20058;-54
2022/05/20 03:21:47;;;;;;;12.45;8.75;;;;;;;13.49;100.00;99416.69;5152789;27;20065;-53
2022/05/20 03:24:13;;;;;;;10.90;7.03;;;;;;;13.38;100.00;99398.09;5153123;27;20047;-55
2022/05/20 03:26:40;;;;;;;10.40;7.80;;;;;;;13.59;100.00;99380.19;5152637;27;20061;-54
2022/05/20 03:29:06;;;;;;;14.65;8.55;;;;;;;13.64;100.00;99374.34;5152709;27;20062;-55
2022/05/20 03:31:35;;;;;;;12.27;8.07;;;;;;;13.70;100.00;99377.56;5152637;27;20058;-55
2022/05/20 03:34:05;;;;;;;10.95;9.52;;;;;;;13.70;100.00;99378.34;5152622;27;20050;-54
2022/05/20 03:36:32;;;;;;;12.00;7.40;;;;;;;13.71;100.00;99384.63;5152662;27;20051;-54
2022/05/20 03:38:58;;;;;;;11.05;7.72;;;;;;;13.71;100.00;99382.69;5152683;27;20475;-54
2022/05/20 03:41:25;;;;;;;10.73;7.53;;;;;;;13.66;100.00;99383.00;5152705;27;20050;-54
2022/05/20 03:43:51;;;;;;;12.45;8.30;;;;;;;13.72;100.00;99369.69;5152306;27;20058;-54
2022/05/20 03:46:17;;;;;;;9.25;7.60;;;;;;;13.82;100.00;99368.97;5152426;27;20059;-53
2022/05/20 03:48:44;;;;;;;15.45;6.88;;;;;;;13.90;100.00;99384.41;5152316;27;20055;-55
2022/05/20 03:51:12;;;;;;;15.85;8.30;;;;;;;13.96;100.00;99390.34;5152653;27;20053;-55
2022/05/20 03:53:38;;;;;;;9.80;7.43;;;;;;;13.98;100.00;99396.28;5152220;27;20073;-55
2022/05/20 03:56:05;;;;;;;12.93;9.02;;;;;;;13.83;100.00;99398.13;5152056;27;20055;-55
2022/05/20 03:58:31;;;;;;;10.55;7.38;;;;;;;13.95;100.00;99400.59;5152378;27;20073;-55
2022/05/20 04:03:42;;;;;;;10.65;7.10;;;;;;;14.01;100.00;99393.53;5152208;27;20075;-55
2022/05/20 04:06:09;;;;;;;9.05;8.23;;;;;;;13.94;100.00;99396.25;5152216;27;20060;-53
2022/05/20 04:08:35;;;;;;;10.95;8.98;;;;;;;14.02;100.00;99397.88;5152170;27;20058;-56
2022/05/20 04:14:29;;;;;;;13.85;7.60;;;;;;;14.07;100.00;99416.84;5152253;27;20046;-55
2022/05/20 04:21:03;;;;;;;15.05;8.63;;;;;;;14.15;100.00;99411.38;5152055;27;20046;-54
2022/05/20 04:23:31;;;;;;;8.23;6.10;;;;;;;14.20;100.00;99409.06;5151748;27;20082;-56
2022/05/20 04:25:57;;;;;;;8.93;7.18;;;;;;;14.32;100.00;99400.44;5152032;27;20058;-55
2022/05/20 04:28:23;;;;;;;14.02;8.15;;;;;;;14.35;100.00;99402.44;5151947;27;20054;-55
2022/05/20 04:30:52;;;;;;;11.30;7.60;;;;;;;14.42;100.00;99404.44;5152028;27;20065;-55
2022/05/20 04:33:18;;;;;;;10.32;8.55;;;;;;;14.41;100.00;99407.59;5151598;27;20050;-56
2022/05/20 04:35:45;;;;;;;10.50;8.80;;;;;;;14.48;100.00;99413.16;5151574;27;20441;-52
2022/05/20 04:38:11;;;;;;;15.55;7.55;;;;;;;14.54;100.00;99414.41;5151803;27;20055;-55
2022/05/20 04:40:38;;;;;;;9.27;6.63;;;;;;;14.61;100.00;99425.50;5151691;27;20383;-52
2022/05/20 04:48:33;;;;;;;;;;;;;;;14.63;100.00;99427.84;5152046;27;20119;-56
2022/05/20 04:50:59;;;;;;;10.00;6.75;;;;;;;14.78;100.00;99443.31;5151397;27;19923;-54
2022/05/20 04:56:11;;;;;;;12.40;8.15;;;;;;;14.81;100.00;99443.34;5151291;27;20046;-54
2022/05/20 04:58:37;;;;;;;10.88;7.90;;;;;;;14.94;100.00;99431.97;5151187;27;20543;-54
2022/05/20 05:01:04;;;;;;;10.82;8.20;;;;;;;15.02;100.00;99450.13;5151207;27;20051;-52
2022/05/20 05:03:30;;;;;;;10.23;7.75;;;;;;;14.99;100.00;99459.19;5151221;27;20050;-56
2022/05/20 05:05:57;;;;;;;11.73;7.63;;;;;;;14.96;100.00;99460.78;5151080;27;20069;-57
2022/05/20 05:08:23;;;;;;;12.18;8.57;;;;;;;15.08;100.00;99465.16;5151222;27;20462;-55
2022/05/20 05:10:49;;;;;;;14.40;8.90;;;;;;;15.02;100.00;99466.69;5151172;27;20051;-54
2022/05/20 05:13:16;;;;;;;14.02;8.50;;;;;;;15.16;100.00;99464.03;5151097;27;20050;-51
2022/05/20 05:15:43;;;;;;;17.63;9.30;;;;;;;15.04;100.00;99453.31;5151323;27;20051;-55
2022/05/20 05:18:12;;;;;;;12.45;8.82;;;;;;;15.04;100.00;99437.53;5151010;27;20055;-52
2022/05/20 05:20:42;;;;;;;13.35;8.80;;;;;;;14.92;100.00;99431.56;5151077;27;20055;-55
2022/05/20 05:23:08;;;;;;;10.05;7.88;;;;;;;14.90;100.00;99428.41;5151464;27;20508;-53
2022/05/20 05:25:35;;;;;;;10.07;7.85;;;;;;;14.83;100.00;99429.16;5154751;27;20108;-55
2022/05/20 05:28:03;;;;;;;15.82;9.38;;;;;;;14.90;100.00;99436.69;5154377;27;20085;-55
2022/05/20 05:30:30;;;;;;;16.65;10.20;;;;;;;14.85;100.00;99443.34;5154287;27;20055;-55
2022/05/20 05:32:57;;;;;;;14.57;9.57;;;;;;;14.85;100.00;99472.94;5154516;27;20111;-65
2022/05/20 05:35:25;;;;;;;12.63;9.82;;;;;;;14.91;100.00;99466.66;5154250;27;20126;-64
2022/05/20 05:37:52;;;;;;;13.68;9.55;;;;;;;14.90;100.00;99464.28;5154528;27;20050;-65
2022/05/20 05:40:21;;;;;;;16.35;9.90;;;;;;;14.87;100.00;99463.09;5154556;27;20051;-68
2022/05/20 05:42:47;;;;;;;17.35;9.68;;;;;;;14.77;100.00;99467.38;5154438;27;20059;-68
2022/05/20 05:45:16;;;;;;;18.55;10.23;;;;;;;14.69;100.00;99464.94;5154395;27;20055;-66
2022/05/20 05:47:46;;;;;;;23.30;11.90;;;;;;;14.70;100.00;99434.22;5154384;27;20047;-65
2022/05/20 05:50:12;;;;;;;24.63;11.57;;;;;;;14.60;100.00;99410.13;5154392;27;20088;-68
2022/05/20 05:52:38;;;;;;;15.30;11.13;;;;;;;14.67;100.00;99410.16;5154271;27;20099;-68
2022/05/20 05:55:05;;;;;;;19.55;15.63;;;;;;;14.72;100.00;99409.78;5154196;27;20399;-67
2022/05/20 05:57:31;;;;;;;21.00;12.73;;;;;;;14.75;100.00;99397.19;5154089;27;20119;-68
2022/05/20 05:59:57;;;;;;;18.23;12.93;;;;;;;14.69;100.00;99384.94;5154187;27;20539;-67
2022/05/20 06:02:24;;;;;;;18.90;12.05;;;;;;;14.76;100.00;99374.72;5153909;27;20059;-68
2022/05/20 06:04:51;;;;;;;28.75;17.60;;;;;;;14.74;100.00;99379.03;5153774;27;20051;-67
2022/05/20 06:07:18;;;;;;;19.98;15.68;;;;;;;14.71;100.00;99368.78;5153884;27;20095;-68
2022/05/20 06:09:45;;;;;;;21.67;18.27;;;;;;;14.63;100.00;99364.38;5154105;27;20494;-69
2022/05/20 06:12:14;;;;;;;22.27;15.82;;;;;;;14.59;100.00;99372.66;5153845;27;20054;-69
2022/05/20 06:14:41;;;;;;;24.95;15.02;;;;;;;14.62;100.00;99373.84;5153925;27;20493;-69
2022/05/20 06:17:10;;;;;;;22.60;20.23;;;;;;;14.64;100.00;99380.56;5153687;27;20055;-69
2022/05/20 06:19:36;;;;;;;20.30;15.32;;;;;;;14.66;100.00;99380.19;5153950;27;20059;-68
2022/05/20 06:22:03;;;;;;;20.88;15.52;;;;;;;14.69;100.00;99369.16;5153819;27;20050;-67
2022/05/20 06:24:30;;;;;;;21.13;14.90;;;;;;;14.72;100.00;99375.88;5153611;27;20061;-70
2022/05/20 06:26:56;;;;;;;20.02;12.75;;;;;;;14.39;100.00;99372.13;5153590;27;20058;-73
2022/05/20 06:29:22;;;;;;;20.35;15.68;;;;;;;14.31;100.00;99365.78;5153400;27;20478;-66
2022/05/20 06:31:48;;;;;;;25.23;14.02;;;;;;;14.44;100.00;99332.38;5153427;27;20098;-66
2022/05/20 06:34:14;;;;;;;19.50;13.30;;;;;;;14.42;100.00;99321.72;5153059;27;20050;-66
2022/05/20 06:42:10;;;;;;;25.17;15.20;;;;;;;14.58;100.00;99358.06;5153742;27;20046;-67
2022/05/20 06:44:36;;;;;;;22.80;14.43;;;;;;;14.69;100.00;99351.81;5153496;27;20061;-69
2022/05/20 06:47:02;;;;;;;25.75;14.63;;;;;;;14.70;100.00;99351.44;5153518;27;20051;-69
2022/05/20 06:49:28;;;;;;;25.77;14.63;;;;;;;14.65;100.00;99349.03;5153278;27;20050;-69
2022/05/20 06:51:56;;;;;;;22.48;13.57;;;;;;;14.85;100.00;99355.03;5153239;27;20066;-68
2022/05/20 06:54:23;;;;;;;20.75;14.43;;;;;;;15.01;100.00;99371.25;5153094;27;20046;-69
2022/05/20 06:56:50;;;;;;;23.67;15.48;;;;;;;15.35;100.00;99382.78;5153195;27;20524;-68
2022/05/20 06:59:16;;;;;;;23.75;14.85;;;;;;;15.50;100.00;99403.75;5153205;27;20441;-67
2022/05/20 07:01:42;;;;;;;24.45;13.38;;;;;;;15.44;100.00;99440.44;5153086;27;20051;-69
2022/05/20 07:04:08;;;;;;;26.95;15.02;;;;;;;15.68;100.00;99472.88;5152848;27;20062;-68
2022/05/20 07:06:35;;;;;;;21.95;14.10;;;;;;;16.12;100.00;99520.75;5153092;27;20096;-67
2022/05/20 07:09:03;;;;;;;22.45;15.57;;;;;;;16.15;100.00;99559.47;5153347;27;20058;-67
2022/05/20 07:11:29;;;;;;;21.13;13.18;;;;;;;16.31;100.00;99561.88;5152951;27;20055;-65
2022/05/20 07:13:58;;;;;;;22.42;12.73;;;;;;;16.37;100.00;99593.50;5153341;27;20057;-64
2022/05/20 07:16:25;;;;;;;23.23;15.70;;;;;;;17.34;100.00;99594.25;5152732;27;20425;-69
2022/05/20 07:18:52;;;;;;;23.70;12.95;;;;;;;17.68;100.00;99635.31;5152811;27;20055;-70
2022/05/20 07:21:18;;;;;;;21.27;10.43;;;;;;;17.49;100.00;99650.41;5152708;27;20061;-69
2022/05/20 07:23:44;;;;;;;17.83;13.05;;;;;;;17.59;100.00;99646.03;5152683;27;20051;-67
2022/05/20 07:26:13;;;;;;;19.75;13.15;;;;;;;17.98;100.00;99634.81;5153002;27;20528;-67
2022/05/20 07:28:39;;;;;;;19.48;12.73;;;;;;;18.37;100.00;99624.72;5152723;27;20081;-66
2022/05/20 07:31:07;;;;;;;18.23;12.60;;;;;;;18.31;100.00;99613.25;5152609;27;20054;-65
2022/05/20 07:33:33;;;;;;;15.23;12.85;;;;;;;18.45;100.00;99615.91;5152635;27;20501;-65
2022/05/20 07:35:59;;;;;;;14.40;11.93;;;;;;;18.25;100.00;99609.31;5153026;27;20060;-65
2022/05/20 07:38:26;;;;;;;14.73;12.23;;;;;;;18.67;100.00;99574.91;5152404;27;20050;-66
2022/05/20 07:40:55;;;;;;;18.30;14.02;;;;;;;18.66;100.00;99570.56;5152723;27;20096;-66
2022/05/20 07:43:22;;;;;;;15.48;13.93;;;;;;;18.64;100.00;99605.47;5152146;27;20054;-67
2022/05/20 07:45:49;;;;;;;14.60;10.55;;;;;;;18.21;100.00;99591.91;5152031;27;20115;-66
2022/05/20 07:48:16;;;;;;;16.27;10.40;;;;;;;18.30;100.00;99576.38;5152405;27;20054;-66
2022/05/20 07:50:45;;;;;;;13.07;10.57;;;;;;;18.05;100.00;99548.00;5152271;27;20059;-66
2022/05/20 07:53:29;;;;;;;16.77;10.52;;;;;;;17.28;100.00;99561.78;5152398;27;20077;-66
2022/05/20 07:56:00;;;;;;;19.52;14.27;;;;;;;18.00;100.00;99620.56;5152345;27;20528;-67
2022/05/20 07:58:29;;;;;;;23.75;20.63;;;;;;;18.11;100.00;99624.84;5152048;27;20050;-66
2022/05/20 08:00:58;;;;;;;29.02;26.05;;;;;;;18.18;100.00;99635.13;5151983;27;20571;-66
2022/05/20 08:06:12;;;;;;;28.77;24.58;;;;;;;18.26;100.00;99592.28;5152165;27;20054;-72
2022/05/20 08:08:39;;;;;;;22.98;17.00;;;;;;;18.05;100.00;99556.31;5151978;27;20054;-71
2022/05/20 08:11:05;;;;;;;25.10;20.15;;;;;;;17.45;100.00;99554.63;5152139;27;20406;-71
2022/05/20 08:13:31;;;;;;;28.85;22.73;;;;;;;18.19;100.00;99591.50;5151821;27;20051;-71
2022/05/20 08:15:58;;;;;;;32.13;27.42;;;;;;;18.17;100.00;99583.59;5151959;27;20054;-71
2022/05/20 08:18:24;;;;;;;33.65;27.50;;;;;;;17.86;100.00;99597.25;5151969;27;20058;-68
2022/05/20 08:20:51;;;;;;;21.23;14.70;;;;;;;17.26;100.00;99583.56;5151840;27;20510;-73
2022/05/20 08:23:17;;;;;;;22.83;15.45;;;;;;;17.50;100.00;99552.22;5151678;27;20080;-74
2022/05/20 08:25:43;;;;;;;18.08;10.82;;;;;;;17.20;100.00;99551.94;5151885;27;20143;-70
2022/05/20 08:28:10;;;;;;;18.80;9.60;;;;;;;17.61;100.00;99569.59;5151558;27;20050;-70
2022/05/20 08:30:36;;;;;;;14.45;10.75;;;;;;;17.52;100.00;99560.13;5151620;27;20050;-75
2022/05/20 08:33:02;;;;;;;15.98;10.55;;;;;;;17.99;100.00;99552.38;5151547;27;20061;-72
2022/05/20 08:35:29;;;;;;;16.17;8.63;;;;;;;18.13;100.00;99519.03;5151873;27;20050;-77
2022/05/20 08:37:56;;;;;;;16.92;9.68;;;;;;;18.31;100.00;99425.31;5151772;27;20063;-74
2022/05/20 08:40:26;;;;;;;18.85;12.00;;;;;;;18.41;100.00;99456.16;5151878;27;20055;-69
2022/05/20 08:42:56;;;;;;;14.30;8.55;;;;;;;18.01;100.00;99450.94;5151532;27;20050;-71
2022/05/20 08:45:25;;;;;;;20.05;11.65;;;;;;;18.03;100.00;99370.09;5151485;27;20051;-70
2022/05/20 08:47:53;;;;;;;16.60;10.43;;;;;;;18.11;100.00;99341.06;5151533;27;20529;-71
2022/05/20 08:50:23;;;;;;;16.85;11.35;;;;;;;17.90;100.00;99393.97;5151311;27;20101;-71
2022/05/20 08:52:52;;;;;;;13.70;10.02;;;;;;;17.71;100.00;99418.25;5151620;27;20062;-71
2022/05/20 08:55:19;;;;;;;14.73;8.68;;;;;;;17.51;100.00;99454.00;5150952;27;20050;-71
2022/05/20 08:57:48;;;;;;;11.18;7.85;;;;;;;17.43;100.00;99460.78;5150042;27;20099;-71
2022/05/20 09:00:15;;;;;;;11.05;7.38;;;;;;;17.83;100.00;99456.63;5151100;27;20059;-71
2022/05/20 09:02:42;;;;;;;12.02;7.15;;;;;;;18.01;100.00;99437.06;5151388;27;20059;-70
2022/05/20 09:05:31;;;;;;;10.93;6.82;;;;;;;18.08;100.00;99364.09;5151424;27;20055;-71
2022/05/20 09:08:01;;;;;;;10.88;6.50;;;;;;;17.72;100.00;99320.00;5143925;27;20051;-71
2022/05/20 09:10:34;;;;;;;12.15;6.65;;;;;;;17.65;100.00;99342.22;5151473;27;20069;-71
2022/05/20 09:13:07;;;;;;;8.97;4.73;;;;;;;16.53;100.00;99434.56;5151105;27;20050;-71
2022/05/20 09:15:46;;;;;;;10.50;6.72;;;;;;;16.93;100.00;99467.31;5151012;27;20312;-71
2022/05/20 09:18:20;;;;;;;8.40;6.75;;;;;;;17.15;100.00;99442.31;5150971;27;20057;-71
2022/05/20 09:20:49;;;;;;;7.80;5.93;;;;;;;17.62;100.00;99456.72;5151081;27;20111;-71
2022/05/20 09:23:20;;;;;;;8.77;6.78;;;;;;;17.71;100.00;99411.91;5151230;27;20050;-71
2022/05/20 09:25:54;;;;;;;8.73;6.65;;;;;;;18.31;100.00;99383.69;5150942;27;20057;-71
2022/05/20 09:28:29;;;;;;;10.88;6.40;;;;;;;18.28;100.00;99303.22;5150960;27;20058;-71
2022/05/20 09:31:13;;;;;;;12.98;6.72;;;;;;;18.32;100.00;99290.88;5150775;27;20051;-71
2022/05/20 09:33:39;;;;;;;8.80;5.90;;;;;;;18.47;100.00;99183.25;5150974;27;20073;-73
2022/05/20 09:36:06;;;;;;;14.27;6.60;;;;;;;18.46;100.00;99230.84;5150747;27;20502;-70
2022/05/20 09:38:37;;;;;;;12.73;6.80;;;;;;;19.22;100.00;99145.22;5150776;27;20051;-70
2022/05/20 09:41:12;;;;;;;12.07;6.85;;;;;;;19.36;100.00;99064.38;5150797;27;20051;-67
2022/05/20 09:43:41;;;;;;;11.43;7.22;;;;;;;19.29;100.00;99020.00;5150648;27;20058;-71
2022/05/20 09:46:27;;;;;;;12.23;6.13;;;;;;;18.46;100.00;99067.06;5150627;27;20438;-68
2022/05/20 09:49:03;;;;;;;7.80;6.05;;;;;;;18.69;100.00;99141.28;5150559;27;20050;-68
2022/05/20 09:51:36;;;;;;;15.23;8.15;;;;;;;18.71;100.00;99170.22;5150847;27;20421;-72
2022/05/20 09:54:12;;;;;;;11.50;6.32;;;;;;;18.22;100.00;99224.41;5150600;27;20111;-72
2022/05/20 09:56:43;;;;;;;8.32;6.18;;;;;;;18.81;100.00;99199.84;5150650;27;20505;-69
2022/05/20 09:59:21;;;;;;;8.57;6.80;;;;;;;19.45;100.00;99128.50;5150588;27;20066;-69
2022/05/20 10:01:58;;;;;;;11.43;6.45;;;;;;;20.00;100.00;98950.97;5150397;27;20055;-72
2022/05/20 10:04:37;;;;;;;8.45;5.70;;;;;;;20.18;100.00;98826.06;5150355;27;20051;-73
2022/05/20 10:07:10;;;;;;;8.05;5.72;;;;;;;20.11;100.00;98901.41;5150154;27;20051;-72
2022/05/20 10:09:42;;;;;;;7.32;5.72;;;;;;;21.29;100.00;98691.91;5151791;27;20061;-72
2022/05/20 10:12:17;;;;;;;8.13;5.70;;;;;;;21.35;100.00;98530.44;5153675;27;20547;-68
2022/05/20 10:14:49;;;;;;;6.82;5.50;;;;;;;21.14;100.00;98504.06;5153996;27;20089;-71
2022/05/20 10:17:33;;;;;;;7.15;5.15;;;;;;;20.40;100.00;98513.72;5153700;27;20059;-68
2022/05/20 10:20:07;;;;;;;9.27;4.88;;;;;;;21.83;100.00;98466.88;5153602;27;20111;-69
2022/05/20 10:22:45;;;;;;;9.93;4.75;;;;;;;21.01;100.00;98400.25;5154240;27;20073;-71
2022/05/20 10:25:21;;;;;;;6.45;5.00;;;;;;;21.91;100.00;98451.41;5153437;27;20050;-67
2022/05/20 10:27:55;;;;;;;6.60;5.22;;;;;;;22.27;100.00;98355.84;5153999;27;20096;-70
2022/05/20 10:33:14;;;;;;;7.10;5.63;;;;;;;22.03;100.00;98335.34;5153503;27;20487;-67
2022/05/20 10:35:54;;;;;;;7.40;5.25;;;;;;;21.54;100.00;98297.84;5153525;27;20051;-68
2022/05/20 10:38:40;;;;;;;6.47;5.03;;;;;;;21.68;100.00;98412.88;5153290;27;20050;-66
2022/05/20 10:41:09;;;;;;;9.45;5.50;;;;;;;21.28;100.00;98392.03;5153590;27;20111;-67
2022/05/20 10:49:44;;;;;;;11.30;5.50;;;;;;;21.23;100.00;98358.44;5153646;27;20111;-66
2022/05/20 10:52:23;;;;;;;9.73;6.03;;;;;;;21.55;100.00;98377.50;5153132;27;20417;-66
2022/05/20 10:55:07;;;;;;;7.40;5.30;;;;;;;20.95;100.00;98185.50;5153192;27;20054;-67
2022/05/20 10:58:02;;;;;;;9.02;4.78;;;;;;;21.07;100.00;98114.97;5153535;27;20114;-66
2022/05/20 11:00:40;;;;;;;7.68;4.07;;;;;;;21.71;100.00;97954.50;5149700;27;20054;-65
2022/05/20 11:03:39;;;;;;;8.70;4.22;;;;;;;21.94;100.00;97953.81;5153370;27;20521;-66
2022/05/20 11:06:25;;;;;;;5.78;4.50;;;;;;;21.44;100.00;97938.63;5152977;27;20143;-70
2022/05/20 11:09:01;;;;;;;6.30;4.10;;;;;;;21.30;100.00;97926.84;5152749;27;20055;-70
2022/05/20 11:12:07;;;;;;;6.82;4.32;;;;;;;21.38;100.00;97896.66;5153042;27;20061;-68
2022/05/20 11:15:00;;;;;;;6.65;4.32;;;;;;;22.19;100.00;97899.63;5152802;27;20423;-67
2022/05/20 11:17:41;;;;;;;9.48;5.00;;;;;;;21.92;100.00;97882.97;5152804;27;20055;-67
2022/05/20 11:20:19;;;;;;;7.45;4.50;;;;;;;21.83;100.00;97879.00;5153088;27;20433;-70
2022/05/20 11:23:22;;;;;;;9.98;4.70;;;;;;;21.84;100.00;97865.81;5152594;27;20558;-69
2022/05/20 11:26:24;;;;;;;6.30;4.10;;;;;;;22.03;100.00;97858.13;5152993;27;20057;-65
2022/05/20 11:29:10;;;;;;;7.38;4.70;;;;;;;21.20;100.00;97857.66;5152638;27;20057;-68
2022/05/20 11:31:48;;;;;;;8.13;4.53;;;;;;;22.17;100.00;97845.50;5152637;27;20406;-65
2022/05/20 11:34:54;;;;;;;8.02;4.05;;;;;;;22.70;100.00;97855.97;5152834;27;20145;-67
2022/05/20 11:37:39;;;;;;;9.98;4.63;;;;;;;21.96;100.00;97861.25;5152286;27;20057;-68
2022/05/20 11:40:35;;;;;;;9.02;4.55;;;;;;;22.37;100.00;97856.84;5152492;27;20141;-69
2022/05/20 11:43:25;;;;;;;4.20;3.80;;;;;;;22.55;100.00;97855.91;5152640;27;20435;-69
2022/05/20 11:45:59;;;;;;;7.50;4.40;;;;;;;23.16;100.00;97836.00;5148212;27;20108;-68
2022/05/20 11:48:49;;;;;;;6.90;4.10;;;;;;;22.89;100.00;97867.72;5152212;27;20467;-69
2022/05/20 11:51:52;;;;;;;6.72;4.30;;;;;;;22.64;100.00;97855.09;5152332;27;20050;-67
2022/05/20 11:54:24;;;;;;;7.65;4.32;;;;;;;22.09;100.00;97853.41;5100149;27;20582;-69
2022/05/20 11:56:57;;;;;;;7.03;4.60;;;;;;;22.21;100.00;97832.13;5152445;27;20046;-68
2022/05/20 11:59:29;;;;;;;7.70;4.63;;;;;;;22.18;100.00;97836.66;5152157;27;20061;-69
2022/05/20 12:01:59;;;;;;;11.07;5.25;;;;;;;22.13;100.00;97873.56;5152249;27;20546;-66
2022/05/20 12:04:29;;;;;;;7.85;4.57;;;;;;;22.59;100.00;97858.53;5152159;27;20411;-71
2022/05/20 12:06:59;;;;;;;10.52;4.38;;;;;;;22.56;100.00;97865.84;5151833;27;20130;-69
2022/05/20 12:09:32;;;;;;;8.75;4.70;;;;;;;23.09;100.00;97833.56;5151852;27;20058;-68
2022/05/20 12:12:25;;;;;;;7.30;4.13;;;;;;;22.45;100.00;97855.22;5151801;27;20047;-69
2022/05/20 12:15:40;;;;;;;8.80;4.30;;;;;;;22.54;100.00;97857.94;5128017;27;20057;-70
2022/05/20 12:24:10;;;;;;;8.57;4.70;;;;;;;22.31;100.00;97878.28;5151824;27;20062;-67